sensor_id;sensor_type;location;lat;lon;timestamp;P1;durP1;ratioP1;P2;durP2;ratioP2
41643;SDS011;44236;48.098;11.582;2022-07-24T00:01:27;11.07;;;7.40;;
41643;SDS011;44236;48.098;11.582;2022-07-24T00:03:53;10.70;;;6.22;;
41643;SDS011;44236;48.098;11.582;2022-07-24T00:06:19;9.98;;;5.85;;
41643;SDS011;44236;48.098;11.582;2022-07-24T00:08:45;7.80;;;6.15;;
41643;SDS011;44236;48.098;11.582;2022-07-24T00:11:10;10.02;;;6.20;;
41643;SDS011;44236;48.098;11.582;2022-07-24T00:13:36;9.07;;;6.63;;
41643;SDS011;44236;48.098;11.582;2022-07-24T00:16:02;10.60;;;6.53;;
41643;SDS011;44236;48.098;11.582;2022-07-24T00:18:28;8.15;;;6.78;;
41643;SDS011;44236;48.098;11.582;2022-07-24T00:20:54;7.80;;;5.85;;
41643;SDS011;44236;48.098;11.582;2022-07-24T00:23:19;8.50;;;6.18;;
41643;SDS011;44236;48.098;11.582;2022-07-24T00:25:47;7.65;;;5.70;;
41643;SDS011;44236;48.098;11.582;2022-07-24T00:28:13;10.23;;;6.82;;
41643;SDS011;44236;48.098;11.582;2022-07-24T00:30:38;7.97;;;6.13;;
41643;SDS011;44236;48.098;11.582;2022-07-24T00:33:04;7.35;;;5.80;;
41643;SDS011;44236;48.098;11.582;2022-07-24T00:35:30;7.45;;;5.80;;
41643;SDS011;44236;48.098;11.582;2022-07-24T00:37:56;8.32;;;6.20;;
41643;SDS011;44236;48.098;11.582;2022-07-24T00:40:21;7.40;;;5.90;;
41643;SDS011;44236;48.098;11.582;2022-07-24T00:42:47;8.13;;;6.00;;
41643;SDS011;44236;48.098;11.582;2022-07-24T00:45:13;7.53;;;5.97;;
41643;SDS011;44236;48.098;11.582;2022-07-24T00:47:39;9.00;;;6.32;;
41643;SDS011;44236;48.098;11.582;2022-07-24T00:50:04;8.77;;;6.40;;
41643;SDS011;44236;48.098;11.582;2022-07-24T00:52:31;9.77;;;6.32;;
41643;SDS011;44236;48.098;11.582;2022-07-24T00:54:57;8.40;;;6.30;;
41643;SDS011;44236;48.098;11.582;2022-07-24T00:57:22;7.32;;;5.68;;
41643;SDS011;44236;48.098;11.582;2022-07-24T00:59:48;7.88;;;6.15;;
41643;SDS011;44236;48.098;11.582;2022-07-24T01:02:14;7.85;;;6.43;;
41643;SDS011;44236;48.098;11.582;2022-07-24T01:04:39;8.73;;;6.45;;
41643;SDS011;44236;48.098;11.582;2022-07-24T01:07:06;8.60;;;6.53;;
41643;SDS011;44236;48.098;11.582;2022-07-24T01:09:32;8.93;;;6.32;;
41643;SDS011;44236;48.098;11.582;2022-07-24T01:11:58;9.20;;;6.70;;
41643;SDS011;44236;48.098;11.582;2022-07-24T01:14:25;8.63;;;6.55;;
41643;SDS011;44236;48.098;11.582;2022-07-24T01:16:51;9.43;;;6.40;;
41643;SDS011;44236;48.098;11.582;2022-07-24T01:19:16;7.85;;;6.47;;
41643;SDS011;44236;48.098;11.582;2022-07-24T01:21:49;8.43;;;6.05;;
41643;SDS011;44236;48.098;11.582;2022-07-24T01:24:16;8.40;;;6.32;;
41643;SDS011;44236;48.098;11.582;2022-07-24T01:26:43;9.73;;;6.43;;
41643;SDS011;44236;48.098;11.582;2022-07-24T01:29:09;9.80;;;6.63;;
41643;SDS011;44236;48.098;11.582;2022-07-24T01:31:34;7.57;;;6.03;;
41643;SDS011;44236;48.098;11.582;2022-07-24T01:34:00;9.63;;;6.45;;
41643;SDS011;44236;48.098;11.582;2022-07-24T01:36:26;9.65;;;6.82;;
41643;SDS011;44236;48.098;11.582;2022-07-24T01:38:51;8.20;;;6.28;;
41643;SDS011;44236;48.098;11.582;2022-07-24T01:41:17;9.75;;;7.15;;
41643;SDS011;44236;48.098;11.582;2022-07-24T01:43:42;11.55;;;6.28;;
41643;SDS011;44236;48.098;11.582;2022-07-24T01:46:08;11.05;;;6.70;;
41643;SDS011;44236;48.098;11.582;2022-07-24T01:48:34;8.20;;;6.68;;
41643;SDS011;44236;48.098;11.582;2022-07-24T01:51:00;7.93;;;6.05;;
41643;SDS011;44236;48.098;11.582;2022-07-24T01:53:26;8.95;;;6.78;;
41643;SDS011;44236;48.098;11.582;2022-07-24T01:55:52;10.70;;;7.35;;
41643;SDS011;44236;48.098;11.582;2022-07-24T01:58:18;9.02;;;6.93;;
41643;SDS011;44236;48.098;11.582;2022-07-24T02:00:44;8.70;;;6.68;;
41643;SDS011;44236;48.098;11.582;2022-07-24T02:03:10;8.55;;;6.38;;
41643;SDS011;44236;48.098;11.582;2022-07-24T02:05:36;8.38;;;5.93;;
41643;SDS011;44236;48.098;11.582;2022-07-24T02:08:01;8.90;;;6.53;;
41643;SDS011;44236;48.098;11.582;2022-07-24T02:10:28;8.13;;;6.22;;
41643;SDS011;44236;48.098;11.582;2022-07-24T02:12:54;8.20;;;6.13;;
41643;SDS011;44236;48.098;11.582;2022-07-24T02:15:21;8.88;;;6.13;;
41643;SDS011;44236;48.098;11.582;2022-07-24T02:17:47;7.57;;;6.07;;
41643;SDS011;44236;48.098;11.582;2022-07-24T02:20:14;9.07;;;6.78;;
41643;SDS011;44236;48.098;11.582;2022-07-24T02:22:39;9.82;;;6.45;;
41643;SDS011;44236;48.098;11.582;2022-07-24T02:25:05;8.40;;;6.55;;
41643;SDS011;44236;48.098;11.582;2022-07-24T02:27:31;8.95;;;7.28;;
41643;SDS011;44236;48.098;11.582;2022-07-24T02:29:57;9.48;;;6.53;;
41643;SDS011;44236;48.098;11.582;2022-07-24T02:32:23;9.93;;;6.95;;
41643;SDS011;44236;48.098;11.582;2022-07-24T02:34:49;7.85;;;6.43;;
41643;SDS011;44236;48.098;11.582;2022-07-24T02:37:15;7.47;;;5.93;;
41643;SDS011;44236;48.098;11.582;2022-07-24T02:39:41;9.10;;;6.18;;
41643;SDS011;44236;48.098;11.582;2022-07-24T02:42:07;8.00;;;6.35;;
41643;SDS011;44236;48.098;11.582;2022-07-24T02:44:33;8.88;;;6.63;;
41643;SDS011;44236;48.098;11.582;2022-07-24T02:46:58;11.55;;;6.50;;
41643;SDS011;44236;48.098;11.582;2022-07-24T02:49:24;8.95;;;6.07;;
41643;SDS011;44236;48.098;11.582;2022-07-24T02:51:50;9.40;;;6.18;;
41643;SDS011;44236;48.098;11.582;2022-07-24T02:54:15;7.80;;;5.93;;
41643;SDS011;44236;48.098;11.582;2022-07-24T02:56:41;8.65;;;6.20;;
41643;SDS011;44236;48.098;11.582;2022-07-24T02:59:06;7.53;;;6.18;;
41643;SDS011;44236;48.098;11.582;2022-07-24T03:01:32;7.35;;;5.65;;
41643;SDS011;44236;48.098;11.582;2022-07-24T03:03:58;10.52;;;6.70;;
41643;SDS011;44236;48.098;11.582;2022-07-24T03:06:23;7.28;;;5.90;;
41643;SDS011;44236;48.098;11.582;2022-07-24T03:08:49;8.32;;;6.18;;
41643;SDS011;44236;48.098;11.582;2022-07-24T03:11:14;10.82;;;6.50;;
41643;SDS011;44236;48.098;11.582;2022-07-24T03:13:40;8.27;;;6.05;;
41643;SDS011;44236;48.098;11.582;2022-07-24T03:16:06;8.93;;;6.80;;
41643;SDS011;44236;48.098;11.582;2022-07-24T03:18:32;9.98;;;6.88;;
41643;SDS011;44236;48.098;11.582;2022-07-24T03:20:57;8.05;;;6.43;;
41643;SDS011;44236;48.098;11.582;2022-07-24T03:23:23;7.97;;;6.20;;
41643;SDS011;44236;48.098;11.582;2022-07-24T03:25:48;7.78;;;6.47;;
41643;SDS011;44236;48.098;11.582;2022-07-24T03:28:14;7.72;;;6.85;;
41643;SDS011;44236;48.098;11.582;2022-07-24T03:30:40;10.38;;;7.43;;
41643;SDS011;44236;48.098;11.582;2022-07-24T03:33:06;8.45;;;6.55;;
41643;SDS011;44236;48.098;11.582;2022-07-24T03:35:31;9.30;;;6.78;;
41643;SDS011;44236;48.098;11.582;2022-07-24T03:37:57;7.95;;;6.32;;
41643;SDS011;44236;48.098;11.582;2022-07-24T03:40:23;10.45;;;6.30;;
41643;SDS011;44236;48.098;11.582;2022-07-24T03:42:49;13.35;;;6.63;;
41643;SDS011;44236;48.098;11.582;2022-07-24T03:45:14;10.20;;;6.70;;
41643;SDS011;44236;48.098;11.582;2022-07-24T03:47:40;10.25;;;7.13;;
41643;SDS011;44236;48.098;11.582;2022-07-24T03:50:06;9.48;;;6.75;;
41643;SDS011;44236;48.098;11.582;2022-07-24T03:52:32;8.05;;;6.53;;
41643;SDS011;44236;48.098;11.582;2022-07-24T03:54:57;8.48;;;6.60;;
41643;SDS011;44236;48.098;11.582;2022-07-24T03:57:23;9.80;;;5.80;;
41643;SDS011;44236;48.098;11.582;2022-07-24T03:59:49;9.15;;;6.95;;
41643;SDS011;44236;48.098;11.582;2022-07-24T04:02:14;9.63;;;7.03;;
41643;SDS011;44236;48.098;11.582;2022-07-24T04:04:40;11.60;;;7.13;;
41643;SDS011;44236;48.098;11.582;2022-07-24T04:07:06;9.98;;;7.18;;
41643;SDS011;44236;48.098;11.582;2022-07-24T04:09:31;9.45;;;6.97;;
41643;SDS011;44236;48.098;11.582;2022-07-24T04:11:57;8.45;;;6.13;;
41643;SDS011;44236;48.098;11.582;2022-07-24T04:14:23;10.93;;;7.63;;
41643;SDS011;44236;48.098;11.582;2022-07-24T04:16:49;9.13;;;6.22;;
41643;SDS011;44236;48.098;11.582;2022-07-24T04:19:15;8.75;;;7.03;;
41643;SDS011;44236;48.098;11.582;2022-07-24T04:21:41;9.02;;;6.57;;
41643;SDS011;44236;48.098;11.582;2022-07-24T04:24:07;9.25;;;6.78;;
41643;SDS011;44236;48.098;11.582;2022-07-24T04:26:33;10.50;;;7.10;;
41643;SDS011;44236;48.098;11.582;2022-07-24T04:28:58;11.07;;;7.03;;
41643;SDS011;44236;48.098;11.582;2022-07-24T04:31:24;8.20;;;6.72;;
41643;SDS011;44236;48.098;11.582;2022-07-24T04:33:50;9.20;;;6.85;;
41643;SDS011;44236;48.098;11.582;2022-07-24T04:36:16;9.13;;;7.18;;
41643;SDS011;44236;48.098;11.582;2022-07-24T04:38:41;8.95;;;6.63;;
41643;SDS011;44236;48.098;11.582;2022-07-24T04:41:07;8.35;;;6.93;;
41643;SDS011;44236;48.098;11.582;2022-07-24T04:43:33;10.32;;;7.22;;
41643;SDS011;44236;48.098;11.582;2022-07-24T04:45:58;8.48;;;6.07;;
41643;SDS011;44236;48.098;11.582;2022-07-24T04:48:24;8.80;;;6.82;;
41643;SDS011;44236;48.098;11.582;2022-07-24T04:50:50;9.68;;;6.57;;
41643;SDS011;44236;48.098;11.582;2022-07-24T04:53:16;11.13;;;7.18;;
41643;SDS011;44236;48.098;11.582;2022-07-24T04:55:42;10.73;;;6.65;;
41643;SDS011;44236;48.098;11.582;2022-07-24T04:58:08;10.88;;;7.28;;
41643;SDS011;44236;48.098;11.582;2022-07-24T05:00:33;9.90;;;6.90;;
41643;SDS011;44236;48.098;11.582;2022-07-24T05:02:59;10.45;;;6.68;;
41643;SDS011;44236;48.098;11.582;2022-07-24T05:05:24;10.25;;;7.60;;
41643;SDS011;44236;48.098;11.582;2022-07-24T05:07:50;10.60;;;6.68;;
41643;SDS011;44236;48.098;11.582;2022-07-24T05:10:16;8.60;;;6.38;;
41643;SDS011;44236;48.098;11.582;2022-07-24T05:12:41;12.00;;;6.80;;
41643;SDS011;44236;48.098;11.582;2022-07-24T05:15:07;9.60;;;7.15;;
41643;SDS011;44236;48.098;11.582;2022-07-24T05:17:34;8.55;;;5.90;;
41643;SDS011;44236;48.098;11.582;2022-07-24T05:20:01;21.13;;;6.78;;
41643;SDS011;44236;48.098;11.582;2022-07-24T05:22:27;11.45;;;6.85;;
41643;SDS011;44236;48.098;11.582;2022-07-24T05:24:53;11.75;;;7.43;;
41643;SDS011;44236;48.098;11.582;2022-07-24T05:27:19;11.18;;;7.32;;
41643;SDS011;44236;48.098;11.582;2022-07-24T05:29:44;10.40;;;6.93;;
41643;SDS011;44236;48.098;11.582;2022-07-24T05:32:11;8.85;;;6.90;;
41643;SDS011;44236;48.098;11.582;2022-07-24T05:34:37;10.82;;;7.40;;
41643;SDS011;44236;48.098;11.582;2022-07-24T05:37:03;9.40;;;6.85;;
41643;SDS011;44236;48.098;11.582;2022-07-24T05:39:29;13.38;;;7.70;;
41643;SDS011;44236;48.098;11.582;2022-07-24T05:41:54;11.80;;;8.35;;
41643;SDS011;44236;48.098;11.582;2022-07-24T05:44:20;13.05;;;7.35;;
41643;SDS011;44236;48.098;11.582;2022-07-24T05:46:46;12.32;;;7.88;;
41643;SDS011;44236;48.098;11.582;2022-07-24T05:49:11;14.82;;;8.52;;
41643;SDS011;44236;48.098;11.582;2022-07-24T05:51:37;12.63;;;7.85;;
41643;SDS011;44236;48.098;11.582;2022-07-24T05:54:03;15.23;;;7.88;;
41643;SDS011;44236;48.098;11.582;2022-07-24T05:56:29;11.60;;;7.72;;
41643;SDS011;44236;48.098;11.582;2022-07-24T05:58:55;9.80;;;7.35;;
41643;SDS011;44236;48.098;11.582;2022-07-24T06:01:21;15.13;;;7.70;;
41643;SDS011;44236;48.098;11.582;2022-07-24T06:03:46;11.13;;;8.88;;
41643;SDS011;44236;48.098;11.582;2022-07-24T06:06:12;12.38;;;8.60;;
41643;SDS011;44236;48.098;11.582;2022-07-24T06:08:37;12.15;;;7.80;;
41643;SDS011;44236;48.098;11.582;2022-07-24T06:11:03;9.95;;;7.30;;
41643;SDS011;44236;48.098;11.582;2022-07-24T06:13:29;10.40;;;7.38;;
41643;SDS011;44236;48.098;11.582;2022-07-24T06:15:54;10.48;;;7.60;;
41643;SDS011;44236;48.098;11.582;2022-07-24T06:18:20;10.57;;;7.30;;
41643;SDS011;44236;48.098;11.582;2022-07-24T06:20:46;9.65;;;7.25;;
41643;SDS011;44236;48.098;11.582;2022-07-24T06:23:12;10.95;;;7.15;;
41643;SDS011;44236;48.098;11.582;2022-07-24T06:25:38;9.38;;;7.43;;
41643;SDS011;44236;48.098;11.582;2022-07-24T06:28:03;9.80;;;7.68;;
41643;SDS011;44236;48.098;11.582;2022-07-24T06:30:29;17.33;;;9.40;;
41643;SDS011;44236;48.098;11.582;2022-07-24T06:32:56;19.30;;;9.65;;
41643;SDS011;44236;48.098;11.582;2022-07-24T06:35:23;17.98;;;9.52;;
41643;SDS011;44236;48.098;11.582;2022-07-24T06:37:49;16.55;;;9.25;;
41643;SDS011;44236;48.098;11.582;2022-07-24T06:40:16;14.45;;;8.68;;
41643;SDS011;44236;48.098;11.582;2022-07-24T06:42:43;11.40;;;8.50;;
41643;SDS011;44236;48.098;11.582;2022-07-24T06:45:09;16.65;;;8.40;;
41643;SDS011;44236;48.098;11.582;2022-07-24T06:47:35;13.85;;;8.73;;
41643;SDS011;44236;48.098;11.582;2022-07-24T06:50:01;12.15;;;7.82;;
41643;SDS011;44236;48.098;11.582;2022-07-24T06:52:27;11.23;;;7.38;;
41643;SDS011;44236;48.098;11.582;2022-07-24T06:54:53;11.38;;;7.05;;
41643;SDS011;44236;48.098;11.582;2022-07-24T06:57:19;10.25;;;7.05;;
41643;SDS011;44236;48.098;11.582;2022-07-24T06:59:45;11.32;;;7.78;;
41643;SDS011;44236;48.098;11.582;2022-07-24T07:02:10;10.98;;;7.70;;
41643;SDS011;44236;48.098;11.582;2022-07-24T07:04:36;10.70;;;7.57;;
41643;SDS011;44236;48.098;11.582;2022-07-24T07:07:02;12.00;;;7.63;;
41643;SDS011;44236;48.098;11.582;2022-07-24T07:09:28;10.68;;;7.18;;
41643;SDS011;44236;48.098;11.582;2022-07-24T07:11:54;12.02;;;7.22;;
41643;SDS011;44236;48.098;11.582;2022-07-24T07:14:19;10.05;;;6.75;;
41643;SDS011;44236;48.098;11.582;2022-07-24T07:16:45;12.20;;;6.93;;
41643;SDS011;44236;48.098;11.582;2022-07-24T07:19:11;10.68;;;6.82;;
41643;SDS011;44236;48.098;11.582;2022-07-24T07:21:36;11.15;;;6.30;;
41643;SDS011;44236;48.098;11.582;2022-07-24T07:24:02;9.20;;;6.63;;
41643;SDS011;44236;48.098;11.582;2022-07-24T07:26:29;10.15;;;6.85;;
41643;SDS011;44236;48.098;11.582;2022-07-24T07:28:57;7.28;;;6.28;;
41643;SDS011;44236;48.098;11.582;2022-07-24T07:31:23;10.23;;;7.07;;
41643;SDS011;44236;48.098;11.582;2022-07-24T07:33:50;8.65;;;6.40;;
41643;SDS011;44236;48.098;11.582;2022-07-24T07:36:16;8.80;;;6.45;;
41643;SDS011;44236;48.098;11.582;2022-07-24T07:38:42;11.85;;;7.20;;
41643;SDS011;44236;48.098;11.582;2022-07-24T07:41:07;8.82;;;6.07;;
41643;SDS011;44236;48.098;11.582;2022-07-24T07:43:33;7.65;;;5.97;;
41643;SDS011;44236;48.098;11.582;2022-07-24T07:45:58;8.93;;;6.30;;
41643;SDS011;44236;48.098;11.582;2022-07-24T07:48:24;9.05;;;6.55;;
41643;SDS011;44236;48.098;11.582;2022-07-24T07:50:50;9.02;;;6.30;;
41643;SDS011;44236;48.098;11.582;2022-07-24T07:53:15;7.10;;;5.88;;
41643;SDS011;44236;48.098;11.582;2022-07-24T07:55:41;8.95;;;6.05;;
41643;SDS011;44236;48.098;11.582;2022-07-24T07:58:08;8.13;;;6.55;;
41643;SDS011;44236;48.098;11.582;2022-07-24T08:00:34;7.47;;;5.80;;
41643;SDS011;44236;48.098;11.582;2022-07-24T08:03:01;8.65;;;5.85;;
41643;SDS011;44236;48.098;11.582;2022-07-24T08:05:27;9.85;;;6.10;;
41643;SDS011;44236;48.098;11.582;2022-07-24T08:07:53;9.55;;;6.30;;
41643;SDS011;44236;48.098;11.582;2022-07-24T08:10:19;9.85;;;5.65;;
41643;SDS011;44236;48.098;11.582;2022-07-24T08:12:44;10.65;;;6.65;;
41643;SDS011;44236;48.098;11.582;2022-07-24T08:15:10;8.00;;;6.40;;
41643;SDS011;44236;48.098;11.582;2022-07-24T08:17:35;11.48;;;6.20;;
41643;SDS011;44236;48.098;11.582;2022-07-24T08:20:01;11.70;;;5.70;;
41643;SDS011;44236;48.098;11.582;2022-07-24T08:22:28;9.75;;;5.47;;
41643;SDS011;44236;48.098;11.582;2022-07-24T08:24:53;8.45;;;6.57;;
41643;SDS011;44236;48.098;11.582;2022-07-24T08:27:19;10.20;;;6.07;;
41643;SDS011;44236;48.098;11.582;2022-07-24T08:29:44;7.07;;;5.38;;
41643;SDS011;44236;48.098;11.582;2022-07-24T08:32:10;10.35;;;5.80;;
41643;SDS011;44236;48.098;11.582;2022-07-24T08:34:36;11.20;;;5.60;;
41643;SDS011;44236;48.098;11.582;2022-07-24T08:37:01;10.20;;;6.07;;
41643;SDS011;44236;48.098;11.582;2022-07-24T08:39:27;7.95;;;5.30;;
41643;SDS011;44236;48.098;11.582;2022-07-24T08:41:52;15.55;;;5.70;;
41643;SDS011;44236;48.098;11.582;2022-07-24T08:44:18;8.02;;;5.50;;
41643;SDS011;44236;48.098;11.582;2022-07-24T08:46:44;7.93;;;5.47;;
41643;SDS011;44236;48.098;11.582;2022-07-24T08:49:10;15.57;;;6.50;;
41643;SDS011;44236;48.098;11.582;2022-07-24T08:51:38;42.95;;;15.07;;
41643;SDS011;44236;48.098;11.582;2022-07-24T08:54:08;60.30;;;18.20;;
41643;SDS011;44236;48.098;11.582;2022-07-24T08:56:39;63.50;;;19.27;;
41643;SDS011;44236;48.098;11.582;2022-07-24T08:59:14;81.20;;;20.75;;
41643;SDS011;44236;48.098;11.582;2022-07-24T09:01:41;66.57;;;19.27;;
41643;SDS011;44236;48.098;11.582;2022-07-24T09:04:07;82.65;;;21.48;;
41643;SDS011;44236;48.098;11.582;2022-07-24T09:06:56;53.15;;;17.63;;
41643;SDS011;44236;48.098;11.582;2022-07-24T09:09:22;58.03;;;18.58;;
41643;SDS011;44236;48.098;11.582;2022-07-24T09:11:48;56.05;;;16.48;;
41643;SDS011;44236;48.098;11.582;2022-07-24T09:14:13;50.58;;;17.27;;
41643;SDS011;44236;48.098;11.582;2022-07-24T09:17:10;50.38;;;15.57;;
41643;SDS011;44236;48.098;11.582;2022-07-24T09:19:51;49.65;;;16.83;;
41643;SDS011;44236;48.098;11.582;2022-07-24T09:28:20;38.97;;;13.70;;
41643;SDS011;44236;48.098;11.582;2022-07-24T09:30:42;44.55;;;14.25;;
41643;SDS011;44236;48.098;11.582;2022-07-24T09:38:08;35.63;;;12.75;;
41643;SDS011;44236;48.098;11.582;2022-07-24T09:40:40;38.17;;;12.88;;
41643;SDS011;44236;48.098;11.582;2022-07-24T09:43:23;37.00;;;12.93;;
41643;SDS011;44236;48.098;11.582;2022-07-24T09:51:19;33.88;;;11.90;;
41643;SDS011;44236;48.098;11.582;2022-07-24T09:53:46;32.45;;;13.23;;
41643;SDS011;44236;48.098;11.582;2022-07-24T09:56:17;34.35;;;13.00;;
41643;SDS011;44236;48.098;11.582;2022-07-24T10:01:20;35.83;;;12.90;;
41643;SDS011;44236;48.098;11.582;2022-07-24T10:03:47;31.20;;;13.25;;
41643;SDS011;44236;48.098;11.582;2022-07-24T10:06:15;33.05;;;14.07;;
41643;SDS011;44236;48.098;11.582;2022-07-24T10:08:43;34.13;;;13.60;;
41643;SDS011;44236;48.098;11.582;2022-07-24T10:11:10;36.42;;;13.30;;
41643;SDS011;44236;48.098;11.582;2022-07-24T10:13:37;32.78;;;13.05;;
41643;SDS011;44236;48.098;11.582;2022-07-24T10:21:32;32.75;;;13.45;;
41643;SDS011;44236;48.098;11.582;2022-07-24T10:29:09;31.38;;;12.77;;
41643;SDS011;44236;48.098;11.582;2022-07-24T10:31:43;33.38;;;13.13;;
41643;SDS011;44236;48.098;11.582;2022-07-24T10:34:17;28.55;;;11.75;;
41643;SDS011;44236;48.098;11.582;2022-07-24T10:43:15;35.58;;;13.57;;
41643;SDS011;44236;48.098;11.582;2022-07-24T10:45:43;31.88;;;12.55;;
41643;SDS011;44236;48.098;11.582;2022-07-24T10:59:04;32.17;;;13.83;;
41643;SDS011;44236;48.098;11.582;2022-07-24T11:01:35;27.25;;;12.05;;
41643;SDS011;44236;48.098;11.582;2022-07-24T11:09:10;32.28;;;11.60;;
41643;SDS011;44236;48.098;11.582;2022-07-24T11:20:12;27.08;;;11.63;;
41643;SDS011;44236;48.098;11.582;2022-07-24T11:25:22;26.83;;;11.73;;
41643;SDS011;44236;48.098;11.582;2022-07-24T11:30:23;26.65;;;11.80;;
41643;SDS011;44236;48.098;11.582;2022-07-24T11:32:49;24.77;;;10.35;;
41643;SDS011;44236;48.098;11.582;2022-07-24T11:35:16;28.80;;;12.35;;
41643;SDS011;44236;48.098;11.582;2022-07-24T11:37:42;28.88;;;12.30;;
41643;SDS011;44236;48.098;11.582;2022-07-24T11:40:11;27.58;;;12.07;;
41643;SDS011;44236;48.098;11.582;2022-07-24T11:42:40;22.80;;;11.25;;
41643;SDS011;44236;48.098;11.582;2022-07-24T11:45:06;24.52;;;11.25;;
41643;SDS011;44236;48.098;11.582;2022-07-24T11:47:32;22.52;;;10.23;;
41643;SDS011;44236;48.098;11.582;2022-07-24T11:50:01;26.38;;;11.30;;
41643;SDS011;44236;48.098;11.582;2022-07-24T11:52:36;27.08;;;11.38;;
41643;SDS011;44236;48.098;11.582;2022-07-24T11:57:41;25.73;;;10.55;;
41643;SDS011;44236;48.098;11.582;2022-07-24T12:00:09;23.13;;;10.68;;
41643;SDS011;44236;48.098;11.582;2022-07-24T12:02:37;25.60;;;10.65;;
41643;SDS011;44236;48.098;11.582;2022-07-24T12:05:15;23.10;;;10.43;;
41643;SDS011;44236;48.098;11.582;2022-07-24T12:07:52;25.17;;;11.40;;
41643;SDS011;44236;48.098;11.582;2022-07-24T12:10:21;22.80;;;10.35;;
41643;SDS011;44236;48.098;11.582;2022-07-24T12:12:48;21.75;;;10.02;;
41643;SDS011;44236;48.098;11.582;2022-07-24T12:15:15;20.85;;;9.60;;
41643;SDS011;44236;48.098;11.582;2022-07-24T12:17:54;23.70;;;10.15;;
41643;SDS011;44236;48.098;11.582;2022-07-24T12:20:27;17.15;;;9.82;;
41643;SDS011;44236;48.098;11.582;2022-07-24T12:22:54;21.10;;;10.35;;
41643;SDS011;44236;48.098;11.582;2022-07-24T12:25:21;22.70;;;10.43;;
41643;SDS011;44236;48.098;11.582;2022-07-24T12:27:48;19.88;;;10.38;;
41643;SDS011;44236;48.098;11.582;2022-07-24T12:30:26;17.35;;;9.75;;
41643;SDS011;44236;48.098;11.582;2022-07-24T12:35:25;19.05;;;10.10;;
41643;SDS011;44236;48.098;11.582;2022-07-24T12:37:52;18.10;;;10.10;;
41643;SDS011;44236;48.098;11.582;2022-07-24T12:40:25;19.85;;;9.77;;
41643;SDS011;44236;48.098;11.582;2022-07-24T12:45:31;21.02;;;9.40;;
41643;SDS011;44236;48.098;11.582;2022-07-24T12:50:57;20.45;;;9.45;;
41643;SDS011;44236;48.098;11.582;2022-07-24T12:53:25;16.80;;;9.15;;
41643;SDS011;44236;48.098;11.582;2022-07-24T12:56:00;21.73;;;9.45;;
41643;SDS011;44236;48.098;11.582;2022-07-24T12:58:46;18.05;;;9.68;;
41643;SDS011;44236;48.098;11.582;2022-07-24T13:01:13;17.80;;;9.57;;
41643;SDS011;44236;48.098;11.582;2022-07-24T13:03:39;15.93;;;8.18;;
41643;SDS011;44236;48.098;11.582;2022-07-24T13:06:05;18.02;;;8.35;;
41643;SDS011;44236;48.098;11.582;2022-07-24T13:08:31;16.58;;;8.40;;
41643;SDS011;44236;48.098;11.582;2022-07-24T13:10:56;16.67;;;8.60;;
41643;SDS011;44236;48.098;11.582;2022-07-24T13:13:22;14.85;;;8.45;;
41643;SDS011;44236;48.098;11.582;2022-07-24T13:15:48;15.40;;;8.85;;
41643;SDS011;44236;48.098;11.582;2022-07-24T13:18:13;17.85;;;9.52;;
41643;SDS011;44236;48.098;11.582;2022-07-24T13:20:39;15.18;;;8.07;;
41643;SDS011;44236;48.098;11.582;2022-07-24T13:23:04;14.35;;;8.52;;
41643;SDS011;44236;48.098;11.582;2022-07-24T13:25:30;15.57;;;8.93;;
41643;SDS011;44236;48.098;11.582;2022-07-24T13:27:56;19.73;;;8.75;;
41643;SDS011;44236;48.098;11.582;2022-07-24T13:30:21;14.63;;;8.45;;
41643;SDS011;44236;48.098;11.582;2022-07-24T13:32:47;14.63;;;8.23;;
41643;SDS011;44236;48.098;11.582;2022-07-24T13:35:13;13.43;;;7.68;;
41643;SDS011;44236;48.098;11.582;2022-07-24T13:37:38;13.82;;;7.85;;
41643;SDS011;44236;48.098;11.582;2022-07-24T13:40:04;13.27;;;7.85;;
41643;SDS011;44236;48.098;11.582;2022-07-24T13:42:32;14.60;;;8.05;;
41643;SDS011;44236;48.098;11.582;2022-07-24T13:44:58;14.88;;;8.73;;
41643;SDS011;44236;48.098;11.582;2022-07-24T13:47:23;12.82;;;8.13;;
41643;SDS011;44236;48.098;11.582;2022-07-24T13:49:49;12.93;;;8.38;;
41643;SDS011;44236;48.098;11.582;2022-07-24T13:52:15;14.80;;;8.73;;
41643;SDS011;44236;48.098;11.582;2022-07-24T13:54:41;12.85;;;7.47;;
41643;SDS011;44236;48.098;11.582;2022-07-24T13:57:06;15.55;;;8.45;;
41643;SDS011;44236;48.098;11.582;2022-07-24T13:59:32;11.75;;;7.43;;
41643;SDS011;44236;48.098;11.582;2022-07-24T14:01:58;15.65;;;7.95;;
41643;SDS011;44236;48.098;11.582;2022-07-24T14:04:24;11.50;;;6.72;;
41643;SDS011;44236;48.098;11.582;2022-07-24T14:06:49;12.45;;;7.88;;
41643;SDS011;44236;48.098;11.582;2022-07-24T14:09:16;12.05;;;7.22;;
41643;SDS011;44236;48.098;11.582;2022-07-24T14:11:42;12.25;;;7.07;;
41643;SDS011;44236;48.098;11.582;2022-07-24T14:14:07;17.17;;;8.15;;
41643;SDS011;44236;48.098;11.582;2022-07-24T14:16:33;14.07;;;7.90;;
41643;SDS011;44236;48.098;11.582;2022-07-24T14:18:59;15.63;;;7.47;;
41643;SDS011;44236;48.098;11.582;2022-07-24T14:21:25;15.73;;;7.82;;
41643;SDS011;44236;48.098;11.582;2022-07-24T14:23:50;15.77;;;8.05;;
41643;SDS011;44236;48.098;11.582;2022-07-24T14:26:16;11.90;;;7.00;;
41643;SDS011;44236;48.098;11.582;2022-07-24T14:28:42;12.10;;;7.85;;
41643;SDS011;44236;48.098;11.582;2022-07-24T14:31:07;13.93;;;7.57;;
41643;SDS011;44236;48.098;11.582;2022-07-24T14:33:33;12.52;;;7.15;;
41643;SDS011;44236;48.098;11.582;2022-07-24T14:35:59;11.25;;;7.40;;
41643;SDS011;44236;48.098;11.582;2022-07-24T14:38:25;12.60;;;6.95;;
41643;SDS011;44236;48.098;11.582;2022-07-24T14:40:50;14.48;;;7.68;;
41643;SDS011;44236;48.098;11.582;2022-07-24T14:43:16;14.57;;;7.80;;
41643;SDS011;44236;48.098;11.582;2022-07-24T14:45:42;12.13;;;6.45;;
41643;SDS011;44236;48.098;11.582;2022-07-24T14:48:07;12.77;;;7.35;;
41643;SDS011;44236;48.098;11.582;2022-07-24T14:50:33;10.63;;;6.70;;
41643;SDS011;44236;48.098;11.582;2022-07-24T14:52:59;13.00;;;7.40;;
41643;SDS011;44236;48.098;11.582;2022-07-24T14:55:24;11.57;;;6.47;;
41643;SDS011;44236;48.098;11.582;2022-07-24T14:57:50;10.52;;;6.82;;
41643;SDS011;44236;48.098;11.582;2022-07-24T15:00:15;10.02;;;6.68;;
41643;SDS011;44236;48.098;11.582;2022-07-24T15:02:41;9.43;;;6.25;;
41643;SDS011;44236;48.098;11.582;2022-07-24T15:05:07;11.10;;;7.03;;
41643;SDS011;44236;48.098;11.582;2022-07-24T15:07:33;11.32;;;6.97;;
41643;SDS011;44236;48.098;11.582;2022-07-24T15:09:59;12.57;;;6.93;;
41643;SDS011;44236;48.098;11.582;2022-07-24T15:12:24;10.02;;;6.85;;
41643;SDS011;44236;48.098;11.582;2022-07-24T15:14:50;12.35;;;7.15;;
41643;SDS011;44236;48.098;11.582;2022-07-24T15:17:15;13.80;;;6.95;;
41643;SDS011;44236;48.098;11.582;2022-07-24T15:19:41;10.02;;;6.93;;
41643;SDS011;44236;48.098;11.582;2022-07-24T15:22:07;12.02;;;7.28;;
41643;SDS011;44236;48.098;11.582;2022-07-24T15:24:32;10.88;;;6.20;;
41643;SDS011;44236;48.098;11.582;2022-07-24T15:26:58;11.43;;;7.03;;
41643;SDS011;44236;48.098;11.582;2022-07-24T15:29:24;12.60;;;7.03;;
41643;SDS011;44236;48.098;11.582;2022-07-24T15:31:49;10.82;;;6.97;;
41643;SDS011;44236;48.098;11.582;2022-07-24T15:34:15;10.23;;;6.65;;
41643;SDS011;44236;48.098;11.582;2022-07-24T15:36:41;11.27;;;6.90;;